Ansonia, Ohio
Current Conditions -  °F | °C
As of 10:55 PM on Tuesday 25 Nov 2014 (Local Time) from KVES Reporting Station
Broken Clouds Broken Clouds  
Wind Chill: 22°   Ceiling: 1700
Heat Index: 28°   Visibility: 10mi
Dew Point: 28°   Wind: 6mph
Humidity: 100%   Direction: 360°N
Pressure: 30.18"   Gusts: NA
Location:  40.21°N, 84.64°W
Report Text: KVES 260355Z AUTO 36005KT 10SM BKN017 M02/M02 A3018 RMK AO2
Loading
Personal Weather Stations






























Interactive Weather Map New forecast layout! Learn more

10-Day Weather Forecast

Advertisements
Track Severe Weather on mobile